createdAt,value
2022-12-14T00:01:54.081Z,-1.00
2022-12-14T00:04:23.656Z,-1.00
2022-12-14T00:06:50.624Z,-1.00
2022-12-14T00:09:17.576Z,-1.00
2022-12-14T00:11:44.472Z,-1.00
2022-12-14T00:14:11.541Z,-1.10
2022-12-14T00:16:40.683Z,-1.40
2022-12-14T00:19:07.680Z,-1.30
2022-12-14T00:21:38.910Z,-1.20
2022-12-14T00:24:08.297Z,-1.30
2022-12-14T00:26:37.499Z,-1.20
2022-12-14T00:29:04.678Z,-1.40
2022-12-14T00:31:34.758Z,-1.40
2022-12-14T00:34:04.145Z,-1.20
2022-12-14T00:36:31.589Z,-1.20
2022-12-14T00:38:59.267Z,-1.20
2022-12-14T00:41:30.779Z,-1.20
2022-12-14T00:44:02.711Z,-1.30
2022-12-14T00:46:29.835Z,-1.20
2022-12-14T00:48:56.913Z,-1.10
2022-12-14T00:51:25.949Z,-1.10
2022-12-14T00:53:52.858Z,-1.10
2022-12-14T00:56:19.855Z,-0.90
2022-12-14T00:58:53.923Z,-0.80
2022-12-14T01:01:22.186Z,-0.80
2022-12-14T01:03:49.541Z,-1.10
2022-12-14T01:06:17.816Z,-1.10
2022-12-14T01:08:50.309Z,-1.00
2022-12-14T01:11:17.561Z,-0.90
2022-12-14T01:13:44.366Z,-0.90
2022-12-14T01:16:14.534Z,-0.90
2022-12-14T01:18:43.248Z,-0.90
2022-12-14T01:21:30.913Z,-0.80
2022-12-14T01:24:03.182Z,-0.90
2022-12-14T01:26:33.396Z,-1.00
2022-12-14T01:29:00.632Z,-0.90
2022-12-14T01:31:39.027Z,-1.00
2022-12-14T01:34:06.434Z,-1.00
2022-12-14T01:36:34.871Z,-1.00
2022-12-14T01:39:09.981Z,-1.00
2022-12-14T01:41:41.529Z,-0.90
2022-12-14T01:44:08.373Z,-0.90
2022-12-14T01:46:58.426Z,-0.90
2022-12-14T01:49:45.503Z,-0.90
2022-12-14T01:52:44.001Z,-1.10
2022-12-14T01:55:26.365Z,-1.20
2022-12-14T01:57:59.451Z,-1.10
2022-12-14T02:00:26.531Z,-1.00
2022-12-14T02:03:02.507Z,-0.80
2022-12-14T02:05:35.591Z,-0.70
2022-12-14T02:08:08.439Z,-0.70
2022-12-14T02:10:35.970Z,-0.70
2022-12-14T02:13:24.187Z,-0.60
2022-12-14T02:15:52.070Z,-0.70
2022-12-14T02:18:23.619Z,-0.80
2022-12-14T02:21:28.130Z,-1.00
2022-12-14T02:24:14.155Z,-0.90
2022-12-14T02:26:41.019Z,-0.80
2022-12-14T02:29:26.836Z,-0.80
2022-12-14T02:32:02.444Z,-0.70
2022-12-14T02:34:35.084Z,-0.80
2022-12-14T02:37:24.507Z,-0.80
2022-12-14T02:40:03.532Z,-0.80
2022-12-14T02:42:54.497Z,-0.70
2022-12-14T02:45:34.181Z,-0.60
2022-12-14T02:48:19.461Z,-0.40
2022-12-14T02:50:51.799Z,-0.40
2022-12-14T02:54:10.528Z,-0.40
2022-12-14T02:56:43.410Z,-0.30
2022-12-14T02:59:16.107Z,-0.30
2022-12-14T03:01:47.481Z,-0.30
2022-12-14T03:04:15.140Z,-0.30
2022-12-14T03:07:00.438Z,-0.30
2022-12-14T03:09:31.321Z,-0.40
2022-12-14T03:12:07.318Z,-0.30
2022-12-14T03:14:43.373Z,-0.30
2022-12-14T03:17:19.900Z,-0.40
2022-12-14T03:19:51.235Z,-0.40
2022-12-14T03:22:24.012Z,-0.40
2022-12-14T03:24:57.456Z,-0.30
2022-12-14T03:27:37.516Z,-0.30
2022-12-14T03:30:13.775Z,-0.40
2022-12-14T03:32:57.223Z,-0.40
2022-12-14T03:35:30.294Z,-0.40
2022-12-14T03:38:15.770Z,-0.30
2022-12-14T03:40:59.989Z,-0.50
2022-12-14T03:43:49.658Z,-0.50
2022-12-14T03:46:51.358Z,-0.50
2022-12-14T03:49:39.643Z,-0.60
2022-12-14T03:52:26.958Z,-0.60
2022-12-14T03:55:22.833Z,-0.50
2022-12-14T03:58:26.379Z,-0.40
2022-12-14T04:01:07.938Z,-0.30
2022-12-14T04:04:00.037Z,-0.30
2022-12-14T04:06:47.840Z,-0.40
2022-12-14T04:09:20.082Z,-0.40
2022-12-14T04:12:17.157Z,-0.40
2022-12-14T04:15:14.904Z,-0.60
2022-12-14T04:18:03.207Z,-0.60
2022-12-14T04:21:05.476Z,-0.70
2022-12-14T04:23:56.479Z,-0.70
2022-12-14T04:26:31.805Z,-0.60
2022-12-14T04:29:25.097Z,-0.50
2022-12-14T04:31:58.008Z,-0.50
2022-12-14T04:34:29.515Z,-0.50
2022-12-14T04:37:04.648Z,-0.40
2022-12-14T04:40:14.356Z,-0.50
2022-12-14T04:42:57.305Z,-0.40
2022-12-14T04:45:40.269Z,-0.30
2022-12-14T04:48:18.571Z,-0.40
2022-12-14T04:50:49.580Z,-0.50
2022-12-14T04:53:26.069Z,-0.50
2022-12-14T04:56:09.984Z,-0.50
2022-12-14T04:58:39.643Z,-0.50
2022-12-14T05:01:37.751Z,-0.70
2022-12-14T05:04:19.942Z,-0.70
2022-12-14T05:07:06.297Z,-0.70
2022-12-14T05:09:42.836Z,-0.80
2022-12-14T05:12:36.765Z,-0.70
2022-12-14T05:15:06.357Z,-0.60
2022-12-14T05:17:40.399Z,-0.50
2022-12-14T05:20:20.293Z,-0.40
2022-12-14T05:22:49.979Z,-0.50
2022-12-14T05:25:17.407Z,-0.60
2022-12-14T05:27:46.652Z,-0.60
2022-12-14T05:30:16.712Z,-0.60
2022-12-14T05:32:43.976Z,-0.50
2022-12-14T05:35:13.835Z,-0.30
2022-12-14T05:37:41.905Z,-0.50
2022-12-14T05:40:09.953Z,-0.50
2022-12-14T05:42:44.349Z,-0.40
2022-12-14T05:45:15.922Z,-0.20
2022-12-14T05:47:42.929Z,-0.20
2022-12-14T05:50:12.547Z,-0.20
2022-12-14T05:52:39.443Z,-0.10
2022-12-14T05:55:06.919Z,0.00
2022-12-14T05:57:33.952Z,0.00
2022-12-14T06:00:02.879Z,0.10
2022-12-14T06:02:31.809Z,-0.10
2022-12-14T06:05:03.366Z,0.00
2022-12-14T06:07:30.430Z,0.00
2022-12-14T06:09:57.391Z,0.10
2022-12-14T06:12:24.262Z,0.20
2022-12-14T06:14:51.146Z,0.00
2022-12-14T06:17:18.127Z,-0.10
2022-12-14T06:19:49.609Z,-0.10
2022-12-14T06:22:17.535Z,-0.20
2022-12-14T06:24:47.006Z,-0.10
2022-12-14T06:27:16.382Z,0.00
2022-12-14T06:29:45.454Z,0.00
2022-12-14T06:32:14.906Z,0.10
2022-12-14T06:34:43.889Z,0.10
2022-12-14T06:37:10.864Z,-0.10
2022-12-14T06:39:37.744Z,-0.20
2022-12-14T06:42:05.247Z,-0.20
2022-12-14T06:44:37.454Z,-0.20
2022-12-14T06:47:04.516Z,-0.20
2022-12-14T06:49:33.791Z,-0.30
2022-12-14T06:52:05.368Z,-0.20
2022-12-14T06:54:32.255Z,-0.10
2022-12-14T06:56:59.392Z,0.00
2022-12-14T06:59:26.411Z,0.00
2022-12-14T07:01:53.598Z,-0.10
2022-12-14T07:04:22.993Z,-0.30
2022-12-14T07:06:52.803Z,-0.40
2022-12-14T07:09:19.792Z,-0.30
2022-12-14T07:11:49.716Z,-0.20
2022-12-14T07:14:17.300Z,-0.20
2022-12-14T07:16:48.737Z,-0.20
2022-12-14T07:19:16.898Z,-0.20
2022-12-14T07:21:46.503Z,0.00
2022-12-14T07:24:16.062Z,-0.10
2022-12-14T07:26:45.519Z,-0.20
2022-12-14T07:29:14.642Z,-0.20
2022-12-14T07:31:41.850Z,-0.10
2022-12-14T07:34:13.062Z,-0.20
2022-12-14T07:36:40.077Z,-0.30
2022-12-14T07:39:08.038Z,-0.30
2022-12-14T07:41:35.099Z,-0.20
2022-12-14T07:44:04.262Z,-0.20
2022-12-14T07:46:34.130Z,-0.10
2022-12-14T07:49:02.313Z,0.00
2022-12-14T07:51:32.317Z,0.10
2022-12-14T07:54:00.151Z,0.10
2022-12-14T07:56:30.827Z,0.20
2022-12-14T07:59:01.656Z,0.30
2022-12-14T08:01:34.437Z,0.30
2022-12-14T08:04:07.097Z,0.30
2022-12-14T08:06:35.193Z,0.50
2022-12-14T08:09:05.110Z,0.50
2022-12-14T08:11:34.300Z,0.60
2022-12-14T08:14:06.386Z,0.60
2022-12-14T08:16:38.089Z,0.70
2022-12-14T08:19:05.100Z,0.80
2022-12-14T08:21:32.961Z,0.80
2022-12-14T08:24:02.040Z,0.80
2022-12-14T08:26:35.120Z,0.80
2022-12-14T08:29:02.841Z,0.80
2022-12-14T08:31:30.449Z,0.70
2022-12-14T08:33:59.138Z,0.80
2022-12-14T08:36:32.778Z,0.80
2022-12-14T08:39:02.945Z,0.80
2022-12-14T08:41:30.585Z,0.70
2022-12-14T08:44:01.627Z,0.70
2022-12-14T08:46:33.493Z,0.70
2022-12-14T08:49:03.090Z,0.60
2022-12-14T08:51:32.259Z,0.70
2022-12-14T08:53:59.201Z,0.80
2022-12-14T08:56:28.104Z,0.80
2022-12-14T08:58:55.796Z,0.50
2022-12-14T09:01:33.956Z,0.60
2022-12-14T09:04:10.623Z,0.50
2022-12-14T09:06:42.120Z,0.60
2022-12-14T09:09:15.509Z,0.80
2022-12-14T09:11:46.072Z,1.00
2022-12-14T09:14:13.319Z,0.90
2022-12-14T09:16:42.608Z,0.80
2022-12-14T09:19:09.998Z,0.90
2022-12-14T09:21:37.012Z,1.10
2022-12-14T09:24:05.397Z,1.20
2022-12-14T09:26:33.854Z,1.30
2022-12-14T09:29:00.805Z,1.40
2022-12-14T09:31:28.663Z,1.40
2022-12-14T09:33:56.811Z,1.50
2022-12-14T09:36:28.566Z,1.60
2022-12-14T09:38:57.538Z,1.60
2022-12-14T09:41:33.555Z,1.60
2022-12-14T09:44:54.485Z,1.60
2022-12-14T09:47:32.568Z,1.70
2022-12-14T09:50:06.130Z,1.60
2022-12-14T09:52:40.922Z,1.70
2022-12-14T09:55:38.231Z,1.80
2022-12-14T09:58:24.180Z,1.70
2022-12-14T10:01:22.692Z,1.70
2022-12-14T10:04:06.166Z,1.70
2022-12-14T10:06:36.875Z,1.80
2022-12-14T10:09:28.597Z,1.70
2022-12-14T10:12:14.384Z,1.70
2022-12-14T10:14:53.578Z,1.70
2022-12-14T10:17:58.445Z,1.80
2022-12-14T10:20:37.444Z,1.80
2022-12-14T10:23:05.219Z,1.90
2022-12-14T10:25:35.666Z,2.00
2022-12-14T10:28:14.778Z,2.10
2022-12-14T10:30:42.817Z,2.30
2022-12-14T10:33:15.805Z,2.40
2022-12-14T10:35:54.964Z,2.50
2022-12-14T10:38:43.893Z,2.50
2022-12-14T10:41:42.028Z,2.40
2022-12-14T10:44:29.786Z,2.30
2022-12-14T10:46:59.592Z,2.40
2022-12-14T10:49:58.118Z,2.40
2022-12-14T10:52:38.729Z,2.50
2022-12-14T10:55:17.955Z,2.70
2022-12-14T10:57:45.013Z,2.70
2022-12-14T11:00:23.117Z,2.70
2022-12-14T11:02:57.170Z,2.70
2022-12-14T11:05:38.716Z,2.60
2022-12-14T11:08:07.317Z,2.40
2022-12-14T11:10:39.678Z,2.40
2022-12-14T11:13:21.409Z,2.20
2022-12-14T11:15:53.203Z,2.30
2022-12-14T11:18:20.292Z,2.50
2022-12-14T11:21:05.257Z,2.60
2022-12-14T11:23:46.172Z,2.80
2022-12-14T11:26:28.675Z,3.00
2022-12-14T11:29:00.612Z,2.90
2022-12-14T11:31:37.638Z,2.90
2022-12-14T11:34:07.282Z,2.90
2022-12-14T11:36:39.656Z,3.00
2022-12-14T11:39:15.157Z,2.90
2022-12-14T11:41:46.684Z,2.90
2022-12-14T11:44:16.742Z,2.90
2022-12-14T11:46:45.837Z,2.90
2022-12-14T11:49:29.757Z,2.70
2022-12-14T11:52:05.993Z,2.50
2022-12-14T11:54:32.893Z,2.60
2022-12-14T11:57:04.133Z,2.60
2022-12-14T11:59:42.107Z,2.70
2022-12-14T12:02:41.059Z,2.80
2022-12-14T12:05:22.988Z,2.70
2022-12-14T12:07:49.875Z,2.80
2022-12-14T12:10:22.501Z,2.90
2022-12-14T12:12:52.528Z,2.90
2022-12-14T12:15:41.153Z,3.00
2022-12-14T12:18:22.967Z,3.10
2022-12-14T12:21:08.809Z,3.00
2022-12-14T12:23:43.891Z,3.10
2022-12-14T12:26:19.847Z,3.10
2022-12-14T12:29:01.294Z,3.20
2022-12-14T12:31:38.460Z,3.30
2022-12-14T12:34:17.286Z,3.30
2022-12-14T12:37:09.669Z,3.20
2022-12-14T12:39:42.827Z,3.20
2022-12-14T12:42:31.333Z,3.20
2022-12-14T12:45:17.225Z,3.20
2022-12-14T12:47:48.349Z,2.90
2022-12-14T12:50:24.403Z,2.90
2022-12-14T12:53:04.488Z,3.20
2022-12-14T12:55:51.619Z,2.90
2022-12-14T12:58:23.868Z,2.90
2022-12-14T13:00:55.705Z,2.70
2022-12-14T13:03:32.407Z,2.80
2022-12-14T13:06:09.843Z,2.90
2022-12-14T13:08:41.093Z,3.00
2022-12-14T13:11:26.038Z,3.20
2022-12-14T13:14:05.783Z,3.40
2022-12-14T13:16:38.670Z,3.50
2022-12-14T13:19:54.432Z,3.50
2022-12-14T13:22:40.741Z,3.50
2022-12-14T13:25:27.701Z,3.50
2022-12-14T13:28:20.725Z,3.50
2022-12-14T13:31:25.470Z,3.30
2022-12-14T13:34:08.997Z,3.00
2022-12-14T13:36:57.439Z,3.00
2022-12-14T13:39:50.696Z,3.00
2022-12-14T13:42:20.947Z,3.40
2022-12-14T13:45:07.525Z,3.50
2022-12-14T13:47:48.571Z,3.60
2022-12-14T13:50:41.028Z,3.70
2022-12-14T13:53:22.678Z,3.70
2022-12-14T13:55:56.610Z,3.50
2022-12-14T13:58:25.599Z,3.50
2022-12-14T14:01:00.334Z,3.50
2022-12-14T14:03:38.701Z,3.30
2022-12-14T14:06:17.493Z,3.20
2022-12-14T14:08:50.598Z,3.20
2022-12-14T14:11:39.744Z,3.20
2022-12-14T14:14:18.319Z,3.30
2022-12-14T14:16:51.206Z,3.20
2022-12-14T14:19:23.412Z,3.00
2022-12-14T14:22:22.657Z,2.90
2022-12-14T14:25:12.229Z,2.90
2022-12-14T14:27:49.927Z,2.80
2022-12-14T14:30:31.363Z,2.80
2022-12-14T14:33:35.736Z,2.80
2022-12-14T14:35:49.690Z,2.80
2022-12-14T14:38:34.522Z,2.80
2022-12-14T14:41:18.110Z,2.70
2022-12-14T14:44:03.063Z,2.70
2022-12-14T14:46:48.155Z,2.70
2022-12-14T14:49:40.358Z,2.70
2022-12-14T14:52:47.412Z,2.60
2022-12-14T14:58:27.240Z,2.70
2022-12-14T15:01:09.645Z,2.60
2022-12-14T15:03:44.880Z,2.60
2022-12-14T15:06:33.327Z,2.50
2022-12-14T15:09:11.595Z,2.30
2022-12-14T15:11:51.601Z,2.20
2022-12-14T15:14:26.933Z,2.20
2022-12-14T15:16:56.796Z,2.10
2022-12-14T15:19:36.339Z,2.20
2022-12-14T15:22:09.329Z,2.20
2022-12-14T15:24:44.643Z,2.10
2022-12-14T15:27:27.773Z,2.10
2022-12-14T15:30:10.307Z,2.10
2022-12-14T15:32:47.463Z,2.00
2022-12-14T15:35:18.796Z,2.10
2022-12-14T15:37:58.027Z,2.20
2022-12-14T15:40:31.322Z,2.10
2022-12-14T15:43:13.805Z,2.10
2022-12-14T15:45:47.178Z,2.20
2022-12-14T15:48:25.207Z,2.20
2022-12-14T15:51:17.009Z,2.30
2022-12-14T15:53:50.202Z,2.30
2022-12-14T15:56:32.626Z,2.30
2022-12-14T15:59:02.664Z,2.20
2022-12-14T16:01:54.771Z,2.10
2022-12-14T16:04:25.824Z,2.10
2022-12-14T16:07:09.028Z,2.00
2022-12-14T16:10:03.563Z,2.10
2022-12-14T16:12:45.517Z,2.20
2022-12-14T16:15:27.643Z,2.10
2022-12-14T16:18:02.136Z,1.90
2022-12-14T16:20:37.838Z,2.00
2022-12-14T16:23:14.140Z,2.00
2022-12-14T16:26:16.211Z,2.00
2022-12-14T16:28:43.397Z,2.00
2022-12-14T16:31:15.505Z,2.10
2022-12-14T16:33:43.507Z,2.10
2022-12-14T16:36:25.533Z,2.10
2022-12-14T16:39:05.267Z,2.00
2022-12-14T16:41:41.177Z,2.00
2022-12-14T16:44:20.650Z,1.90
2022-12-14T16:47:04.664Z,1.90
2022-12-14T16:49:42.571Z,1.80
2022-12-14T16:52:20.085Z,1.80
2022-12-14T16:55:17.600Z,1.80
2022-12-14T16:57:55.866Z,1.80
2022-12-14T17:00:32.310Z,1.80
2022-12-14T17:03:06.044Z,1.90
2022-12-14T17:05:36.908Z,2.00
2022-12-14T17:08:06.389Z,2.00
2022-12-14T17:10:34.331Z,2.00
2022-12-14T17:13:03.347Z,2.10
2022-12-14T17:15:35.442Z,1.90
2022-12-14T17:18:04.948Z,1.90
2022-12-14T17:20:39.321Z,1.90
2022-12-14T17:23:11.986Z,1.80
2022-12-14T17:25:46.164Z,1.80
2022-12-14T17:28:27.202Z,1.80
2022-12-14T17:30:58.965Z,1.80
2022-12-14T17:33:30.011Z,1.70
2022-12-14T17:35:57.335Z,1.70
2022-12-14T17:38:24.436Z,1.70
2022-12-14T17:40:53.979Z,1.70
2022-12-14T17:43:27.402Z,1.70
2022-12-14T17:45:54.948Z,1.70
2022-12-14T17:48:21.915Z,1.60
2022-12-14T17:50:52.163Z,1.60
2022-12-14T17:53:25.478Z,1.60
2022-12-14T17:55:55.141Z,1.60
2022-12-14T17:58:24.491Z,1.60
2022-12-14T18:01:00.249Z,1.60
2022-12-14T18:03:32.039Z,1.60
2022-12-14T18:06:00.392Z,1.60
2022-12-14T18:08:27.461Z,1.60
2022-12-14T18:11:01.013Z,1.60
2022-12-14T18:13:28.937Z,1.80
2022-12-14T18:16:00.163Z,1.70
2022-12-14T18:18:29.516Z,1.70
2022-12-14T18:21:03.591Z,1.80
2022-12-14T18:23:32.221Z,1.80
2022-12-14T18:26:00.958Z,1.80
2022-12-14T18:28:30.292Z,1.80
2022-12-14T18:31:00.193Z,1.70
2022-12-14T18:33:33.736Z,1.60
2022-12-14T18:36:01.432Z,1.50
2022-12-14T18:38:28.545Z,1.50
2022-12-14T18:40:58.533Z,1.50
2022-12-14T18:43:28.204Z,1.60
2022-12-14T18:45:56.996Z,1.50
2022-12-14T18:48:25.100Z,1.40
2022-12-14T18:50:54.303Z,1.40
2022-12-14T18:53:23.441Z,1.50
2022-12-14T18:55:50.828Z,1.50
2022-12-14T18:58:19.467Z,1.50
2022-12-14T19:00:47.424Z,1.50
2022-12-14T19:03:17.374Z,1.40
2022-12-14T19:05:45.460Z,1.40
2022-12-14T19:08:13.005Z,1.30
2022-12-14T19:10:47.628Z,1.20
2022-12-14T19:13:25.502Z,1.10
2022-12-14T19:15:54.044Z,1.10
2022-12-14T19:18:22.496Z,1.10
2022-12-14T19:20:51.961Z,1.00
2022-12-14T19:23:20.572Z,1.00
2022-12-14T19:25:49.170Z,0.90
2022-12-14T19:28:31.326Z,0.90
2022-12-14T19:31:01.728Z,0.90
2022-12-14T19:33:31.869Z,1.00
2022-12-14T19:36:01.422Z,1.00
2022-12-14T19:38:30.951Z,1.20
2022-12-14T19:41:07.909Z,1.30
2022-12-14T19:43:35.722Z,1.20
2022-12-14T19:46:11.750Z,1.20
2022-12-14T19:48:39.551Z,1.20
2022-12-14T19:51:10.736Z,1.20
2022-12-14T19:53:42.938Z,1.10
2022-12-14T19:56:10.625Z,1.10
2022-12-14T19:58:38.090Z,1.20
2022-12-14T20:01:08.885Z,1.30
2022-12-14T20:03:36.760Z,1.20
2022-12-14T20:06:05.595Z,1.10
2022-12-14T20:08:38.747Z,1.20
2022-12-14T20:11:08.084Z,1.10
2022-12-14T20:13:40.198Z,1.10
2022-12-14T20:16:07.554Z,1.10
2022-12-14T20:18:34.560Z,1.00
2022-12-14T20:21:08.735Z,1.00
2022-12-14T20:23:38.951Z,1.00
2022-12-14T20:26:12.236Z,0.90
2022-12-14T20:28:39.529Z,1.00
2022-12-14T20:31:07.651Z,1.00
2022-12-14T20:33:35.437Z,0.90
2022-12-14T20:36:05.990Z,1.00
2022-12-14T20:38:34.220Z,0.90
2022-12-14T20:41:09.767Z,0.90
2022-12-14T20:43:41.513Z,0.90
2022-12-14T20:46:33.388Z,1.00
2022-12-14T20:49:06.599Z,1.10
2022-12-14T20:51:36.290Z,1.10
2022-12-14T20:54:05.831Z,1.00
2022-12-14T20:56:34.284Z,0.90
2022-12-14T20:59:01.412Z,0.90
2022-12-14T21:01:28.922Z,1.00
2022-12-14T21:03:57.677Z,0.90
2022-12-14T21:06:24.697Z,0.90
2022-12-14T21:09:06.292Z,0.80
2022-12-14T21:11:54.790Z,0.80
2022-12-14T21:14:24.208Z,0.70
2022-12-14T21:16:52.167Z,0.70
2022-12-14T21:19:19.674Z,0.80
2022-12-14T21:21:53.502Z,0.80
2022-12-14T21:25:00.358Z,0.70
2022-12-14T21:27:19.596Z,0.70
2022-12-14T21:29:46.720Z,0.70
2022-12-14T21:32:14.319Z,0.60
2022-12-14T21:34:44.323Z,0.70
2022-12-14T21:37:16.669Z,0.60
2022-12-14T21:39:49.033Z,0.50
2022-12-14T21:42:20.682Z,0.50
2022-12-14T21:44:50.271Z,0.50
2022-12-14T21:47:35.623Z,0.50
2022-12-14T21:50:07.271Z,0.40
2022-12-14T21:52:34.388Z,0.40
2022-12-14T21:55:03.983Z,0.40
2022-12-14T21:57:50.841Z,0.30
2022-12-14T22:00:17.975Z,0.40
2022-12-14T22:02:45.025Z,0.40
2022-12-14T22:05:12.187Z,0.30
2022-12-14T22:07:42.010Z,0.40
2022-12-14T22:10:10.402Z,0.40
2022-12-14T22:12:37.445Z,0.40
2022-12-14T22:15:06.923Z,0.40
2022-12-14T22:17:34.708Z,0.40
2022-12-14T22:20:04.405Z,0.50
2022-12-14T22:22:31.397Z,0.40
2022-12-14T22:24:59.759Z,0.30
2022-12-14T22:27:26.769Z,0.40
2022-12-14T22:29:53.781Z,0.50
2022-12-14T22:32:20.751Z,0.50
2022-12-14T22:34:52.368Z,0.50
2022-12-14T22:37:21.968Z,0.50
2022-12-14T22:39:51.034Z,0.50
2022-12-14T22:42:18.137Z,0.50
2022-12-14T22:44:45.140Z,0.60
2022-12-14T22:47:12.185Z,0.50
2022-12-14T22:49:39.140Z,0.50
2022-12-14T22:52:06.160Z,0.50
2022-12-14T22:54:33.219Z,0.40
2022-12-14T22:57:07.540Z,0.40
2022-12-14T22:59:36.581Z,0.40
2022-12-14T23:02:03.779Z,0.40
2022-12-14T23:04:33.452Z,0.30
2022-12-14T23:07:00.653Z,0.30
2022-12-14T23:09:48.346Z,0.20
2022-12-14T23:12:33.891Z,0.20
2022-12-14T23:15:21.380Z,0.20
2022-12-14T23:18:06.988Z,0.20
2022-12-14T23:20:52.759Z,0.20
2022-12-14T23:23:40.814Z,0.00
2022-12-14T23:26:26.434Z,0.10
2022-12-14T23:29:12.003Z,0.00
2022-12-14T23:31:57.355Z,0.10
2022-12-14T23:34:43.040Z,0.10
2022-12-14T23:37:28.483Z,0.10
2022-12-14T23:40:13.870Z,0.20
2022-12-14T23:42:59.336Z,0.20
2022-12-14T23:45:44.986Z,0.20
2022-12-14T23:48:30.696Z,0.20
2022-12-14T23:51:18.864Z,0.20
2022-12-14T23:54:04.421Z,0.20
2022-12-14T23:56:50.232Z,0.20
2022-12-14T23:59:38.282Z,0.10
